Time;durP1;ratioP1;P1;durP2;ratioP2;P2;SDS_P1;SDS_P2;PMS_P1;PMS_P2;Temp;Humidity;BMP_temperature;BMP_pressure;BME280_temperature;BME280_humidity;BME280_pressure;Samples;Min_cycle;Max_cycle;Signal;HPM_P1;HPM_P2
2023/04/08 00:01:06;;;;;;;30.55;11.75;;;4.70;99.90;;;;;;5055180;28;20052;-84
2023/04/08 00:03:32;;;;;;;29.38;11.38;;;4.70;99.90;;;;;;5071947;28;20485;-82
2023/04/08 00:05:59;;;;;;;26.05;11.18;;;4.60;99.90;;;;;;5071794;28;20080;-83
2023/04/08 00:08:25;;;;;;;;;;;4.60;99.90;;;;;;5072487;28;20065;-78
2023/04/08 00:10:50;;;;;;;26.67;10.13;;;4.60;99.90;;;;;;5071754;28;20429;-82
2023/04/08 00:13:16;;;;;;;23.75;9.50;;;4.60;99.90;;;;;;5037281;28;20041;-83
2023/04/08 00:15:42;;;;;;;24.65;9.88;;;4.60;99.90;;;;;;5072864;28;20100;-81
2023/04/08 00:18:08;;;;;;;23.20;9.77;;;4.50;99.90;;;;;;5071027;28;20051;-82
2023/04/08 00:20:34;;;;;;;27.00;10.55;;;4.50;99.90;;;;;;5073265;28;20052;-80
2023/04/08 00:22:59;;;;;;;23.38;9.45;;;4.50;99.90;;;;;;5072442;28;20611;-83
2023/04/08 00:25:25;;;;;;;21.85;9.05;;;4.50;99.90;;;;;;5071409;28;20048;-81
2023/04/08 00:27:51;;;;;;;27.58;10.13;;;4.40;99.90;;;;;;5072491;28;20052;-85
2023/04/08 00:30:17;;;;;;;24.20;9.18;;;4.40;99.90;;;;;;5071427;28;20049;-80
2023/04/08 00:32:43;;;;;;;26.17;9.88;;;4.40;99.90;;;;;;5071989;28;20037;-82
2023/04/08 00:35:09;;;;;;;26.80;9.85;;;4.40;99.90;;;;;;5073142;28;20481;-83
2023/04/08 00:37:35;;;;;;;26.27;10.00;;;4.40;99.90;;;;;;5077204;28;20123;-81
2023/04/08 00:40:00;;;;;;;26.08;9.45;;;4.30;99.90;;;;;;5061986;28;20045;-83
2023/04/08 00:42:26;;;;;;;23.20;9.57;;;4.30;99.90;;;;;;5057982;28;20060;-79
2023/04/08 00:44:52;;;;;;;30.80;10.02;;;4.30;99.90;;;;;;5058800;28;20124;-82
2023/04/08 00:47:18;;;;;;;24.10;9.13;;;4.30;99.90;;;;;;5064019;28;20052;-82
2023/04/08 00:49:44;;;;;;;23.15;9.45;;;4.20;99.90;;;;;;5061473;28;20055;-83
2023/04/08 00:52:10;;;;;;;26.13;9.27;;;4.20;99.90;;;;;;5077374;28;20127;-82
2023/04/08 00:54:37;;;;;;;24.85;9.90;;;4.20;99.90;;;;;;5057532;28;20155;-81
2023/04/08 00:57:04;;;;;;;28.90;11.52;;;4.10;99.90;;;;;;5074769;28;20153;-80
2023/04/08 00:59:30;;;;;;;;;;;4.10;99.90;;;;;;5073021;28;20049;-80
2023/04/08 01:02:29;;;;;;;24.95;10.10;;;4.10;99.90;;;;;;5071983;28;19930;-82
2023/04/08 01:05:03;;;;;;;26.13;9.50;;;4.10;99.90;;;;;;5062056;28;20401;-83
2023/04/08 01:07:47;;;;;;;25.88;10.55;;;4.10;99.90;;;;;;5051063;28;20040;-83
2023/04/08 01:10:27;;;;;;;29.42;10.23;;;4.10;99.90;;;;;;5056225;28;20552;-83
2023/04/08 01:12:56;;;;;;;30.08;10.07;;;4.10;99.90;;;;;;5055447;28;20088;-80
2023/04/08 01:15:25;;;;;;;28.38;10.07;;;4.00;99.90;;;;;;5056143;28;20044;-81
2023/04/08 01:17:55;;;;;;;28.88;10.70;;;4.00;99.90;;;;;;5038648;28;20049;-82
2023/04/08 01:20:23;;;;;;;29.35;10.70;;;3.90;99.90;;;;;;5056356;28;20041;-84
2023/04/08 01:23:27;;;;;;;23.55;10.20;;;3.90;99.90;;;;;;5057616;28;20052;-83
2023/04/08 01:25:56;;;;;;;21.98;9.30;;;3.90;99.90;;;;;;5070601;28;20067;-80
2023/04/08 01:28:26;;;;;;;25.83;10.95;;;3.80;99.90;;;;;;5078263;28;20037;-81
2023/04/08 01:30:55;;;;;;;25.75;10.55;;;3.80;99.90;;;;;;5077948;28;20052;-80
2023/04/08 01:33:22;;;;;;;27.00;10.77;;;3.70;99.90;;;;;;5059819;28;20059;-81
2023/04/08 01:35:48;;;;;;;26.45;10.25;;;3.70;99.90;;;;;;5080230;28;20049;-76
2023/04/08 01:38:17;;;;;;;30.45;11.27;;;3.70;99.90;;;;;;5074566;28;20077;-80
2023/04/08 01:40:44;;;;;;;29.90;10.73;;;3.70;99.90;;;;;;5058753;28;20053;-80
2023/04/08 01:43:13;;;;;;;26.75;11.00;;;3.60;99.90;;;;;;5041364;28;20057;-82
2023/04/08 01:45:39;;;;;;;25.90;10.23;;;3.60;99.90;;;;;;5057323;28;20057;-80
2023/04/08 01:48:06;;;;;;;35.80;11.45;;;3.60;99.90;;;;;;5057424;28;20046;-80
2023/04/08 01:50:32;;;;;;;28.35;12.05;;;3.60;99.90;;;;;;5057357;28;20165;-80
2023/04/08 01:52:59;;;;;;;30.25;11.63;;;3.60;99.90;;;;;;5054414;28;20048;-77
2023/04/08 01:55:26;;;;;;;;;;;3.60;99.90;;;;;;5061150;28;20454;-80
2023/04/08 01:57:53;;;;;;;31.17;11.05;;;3.60;99.90;;;;;;5075513;28;19920;-81
2023/04/08 02:00:23;;;;;;;30.45;11.77;;;3.60;99.90;;;;;;5074251;28;20049;-79
2023/04/08 02:02:50;;;;;;;29.15;11.75;;;3.50;99.90;;;;;;5074791;28;20132;-78
2023/04/08 02:05:16;;;;;;;27.55;12.15;;;3.50;99.90;;;;;;5074184;28;20126;-77
2023/04/08 02:07:41;;;;;;;32.45;12.65;;;3.50;99.90;;;;;;5076036;28;20084;-81
2023/04/08 02:10:07;;;;;;;31.50;12.38;;;3.50;99.90;;;;;;5074301;28;20076;-79
2023/04/08 02:12:33;;;;;;;37.53;13.60;;;3.50;99.90;;;;;;5040475;28;20044;-81
2023/04/08 02:15:00;;;;;;;32.03;12.23;;;3.40;99.90;;;;;;5074375;28;20041;-81
2023/04/08 02:17:55;;;;;;;32.08;11.63;;;3.40;99.90;;;;;;5074760;28;20049;-81
2023/04/08 02:20:37;;;;;;;34.00;12.02;;;3.40;99.90;;;;;;5072617;28;20048;-80
2023/04/08 02:23:13;;;;;;;36.03;12.63;;;3.30;99.90;;;;;;5075249;28;20464;-81
2023/04/08 02:25:43;;;;;;;33.00;12.63;;;3.30;99.90;;;;;;5057443;28;20052;-82
2023/04/08 02:28:10;;;;;;;35.60;15.10;;;3.30;99.90;;;;;;5073603;28;20059;-79
2023/04/08 02:30:47;;;;;;;35.55;13.25;;;3.30;99.90;;;;;;5072519;28;20531;-81
2023/04/08 02:33:13;;;;;;;;;;;3.30;99.90;;;;;;5065338;28;20072;-82
2023/04/08 02:35:40;;;;;;;35.17;13.20;;;3.30;99.90;;;;;;5054687;28;19940;-82
2023/04/08 02:38:07;;;;;;;33.38;12.93;;;3.20;99.90;;;;;;5055184;28;20049;-83
2023/04/08 02:40:34;;;;;;;38.78;13.63;;;3.10;99.90;;;;;;5054492;28;20056;-82
2023/04/08 02:43:00;;;;;;;39.20;13.77;;;3.10;99.90;;;;;;5053963;28;20053;-81
2023/04/08 02:45:30;;;;;;;44.80;15.40;;;3.10;99.90;;;;;;5054709;28;20056;-80
2023/04/08 02:47:55;;;;;;;38.78;15.00;;;3.10;99.90;;;;;;5054620;28;20041;-82
2023/04/08 02:50:21;;;;;;;43.63;14.85;;;3.10;99.90;;;;;;5055547;28;20049;-79
2023/04/08 02:52:47;;;;;;;40.63;15.43;;;3.00;99.90;;;;;;5056013;28;20120;-81
2023/04/08 02:55:13;;;;;;;43.83;16.92;;;2.90;99.90;;;;;;5056449;28;20057;-83
2023/04/08 02:57:40;;;;;;;38.00;14.85;;;2.90;99.90;;;;;;5069614;28;20118;-81
2023/04/08 03:00:07;;;;;;;47.58;15.10;;;2.90;99.90;;;;;;5075255;28;20052;-81
2023/04/08 03:02:33;;;;;;;37.90;14.07;;;2.90;99.90;;;;;;5078035;28;20123;-81
2023/04/08 03:04:59;;;;;;;39.97;15.35;;;2.80;99.90;;;;;;5059367;28;20060;-82
2023/04/08 03:07:25;;;;;;;37.22;14.48;;;2.80;99.90;;;;;;5058453;28;20052;-81
2023/04/08 03:09:51;;;;;;;40.45;16.38;;;2.80;99.90;;;;;;5058815;28;20044;-79
2023/04/08 03:12:16;;;;;;;43.13;16.40;;;2.80;99.90;;;;;;5057114;28;20044;-81
2023/04/08 03:14:42;;;;;;;41.78;15.93;;;2.70;99.90;;;;;;5056746;28;20048;-79
2023/04/08 03:17:08;;;;;;;43.72;16.02;;;2.70;99.90;;;;;;5056892;28;20048;-81
2023/04/08 03:19:34;;;;;;;45.60;17.55;;;2.60;99.90;;;;;;5054969;28;20041;-80
2023/04/08 03:21:59;;;;;;;48.78;17.27;;;2.60;99.90;;;;;;5054716;28;20159;-81
2023/04/08 03:24:25;;;;;;;46.42;17.42;;;2.70;99.90;;;;;;5053813;28;20086;-77
2023/04/08 03:26:51;;;;;;;43.80;17.17;;;2.60;99.90;;;;;;5052809;28;20043;-81
2023/04/08 03:29:17;;;;;;;45.40;16.50;;;2.60;99.90;;;;;;5052330;28;20091;-81
2023/04/08 03:31:42;;;;;;;42.33;16.65;;;2.50;99.90;;;;;;5034528;28;20041;-81
2023/04/08 03:34:08;;;;;;;47.65;16.90;;;2.60;99.90;;;;;;5053524;28;20041;-81
2023/04/08 03:36:34;;;;;;;44.15;16.33;;;2.50;99.90;;;;;;5053607;28;20047;-79
2023/04/08 03:39:00;;;;;;;44.78;17.17;;;2.50;99.90;;;;;;5071885;28;20453;-82
2023/04/08 03:41:25;;;;;;;43.15;17.45;;;2.50;99.90;;;;;;5073527;28;20592;-81
2023/04/08 03:43:51;;;;;;;47.70;17.45;;;2.40;99.90;;;;;;5073364;28;20044;-81
2023/04/08 03:46:17;;;;;;;49.63;17.55;;;2.40;99.90;;;;;;5073289;28;20075;-81
2023/04/08 03:48:42;;;;;;;47.13;16.20;;;2.40;99.90;;;;;;5071987;28;20048;-81
2023/04/08 03:51:08;;;;;;;57.72;18.27;;;2.40;99.90;;;;;;5071989;28;20048;-80
2023/04/08 03:53:34;;;;;;;53.05;17.80;;;2.40;99.90;;;;;;5071219;28;20477;-80
2023/04/08 03:56:01;;;;;;;51.30;19.98;;;2.30;99.90;;;;;;5072076;28;20084;-81
2023/04/08 03:58:27;;;;;;;;;;;2.30;99.90;;;;;;5073290;28;20114;-79
2023/04/08 04:00:53;;;;;;;56.42;18.48;;;2.30;99.90;;;;;;5072671;28;20368;-81
2023/04/08 04:03:19;;;;;;;54.25;19.55;;;2.30;99.90;;;;;;5071948;28;20113;-79
2023/04/08 04:05:45;;;;;;;59.45;19.60;;;2.20;99.90;;;;;;5071316;28;20048;-82
2023/04/08 04:08:10;;;;;;;49.30;18.52;;;2.30;99.90;;;;;;5072301;28;20063;-80
2023/04/08 04:10:36;;;;;;;54.50;18.83;;;2.20;99.90;;;;;;5072242;28;20527;-83
2023/04/08 04:13:02;;;;;;;54.35;20.10;;;2.20;99.90;;;;;;5052783;28;20036;-81
2023/04/08 04:15:28;;;;;;;61.20;20.58;;;2.20;99.90;;;;;;5052248;28;20051;-79
2023/04/08 04:17:53;;;;;;;58.25;21.02;;;2.20;99.90;;;;;;5051490;28;20049;-81
2023/04/08 04:20:20;;;;;;;54.95;20.23;;;2.20;99.90;;;;;;5068580;28;20052;-82
2023/04/08 04:22:46;;;;;;;63.10;20.35;;;2.10;99.90;;;;;;5051400;28;20056;-81
2023/04/08 04:25:12;;;;;;;54.63;20.55;;;2.10;99.90;;;;;;5052904;28;20110;-80
2023/04/08 04:27:37;;;;;;;59.90;20.60;;;2.20;99.90;;;;;;5052689;28;20049;-78
2023/04/08 04:30:04;;;;;;;59.75;20.70;;;2.20;99.90;;;;;;5052727;28;20088;-83
2023/04/08 04:32:30;;;;;;;60.13;22.20;;;2.20;99.90;;;;;;5052530;28;20052;-80
2023/04/08 04:34:56;;;;;;;60.85;21.55;;;2.30;99.90;;;;;;5084849;28;20044;-80
2023/04/08 04:37:22;;;;;;;61.22;20.65;;;2.30;99.90;;;;;;5068318;28;20489;-81
2023/04/08 04:39:47;;;;;;;60.70;20.48;;;2.30;99.90;;;;;;5052108;28;20041;-82
2023/04/08 04:42:13;;;;;;;62.47;21.75;;;2.30;99.90;;;;;;5052622;28;20041;-78
2023/04/08 04:44:39;;;;;;;62.53;21.83;;;2.30;99.90;;;;;;5052332;28;20106;-79
2023/04/08 04:47:05;;;;;;;64.47;20.70;;;2.30;99.90;;;;;;5072344;28;20040;-80
2023/04/08 04:49:30;;;;;;;66.35;22.13;;;2.30;99.90;;;;;;5105564;28;20050;-78
2023/04/08 04:51:56;;;;;;;69.75;22.42;;;2.30;99.90;;;;;;5104841;28;20106;-79
2023/04/08 04:54:23;;;;;;;;;;;2.30;99.90;;;;;;5071571;28;20504;-77
2023/04/08 04:56:49;;;;;;;71.00;22.80;;;2.30;99.90;;;;;;5072403;28;19974;-80
2023/04/08 04:59:15;;;;;;;68.95;23.48;;;2.40;99.90;;;;;;5071500;28;20041;-79
2023/04/08 05:01:41;;;;;;;67.38;21.65;;;2.40;99.90;;;;;;5071615;28;20044;-79
2023/04/08 05:04:07;;;;;;;75.85;23.60;;;2.50;99.90;;;;;;5051458;28;20049;-81
2023/04/08 05:06:32;;;;;;;77.45;25.05;;;2.50;99.90;;;;;;5052238;28;20045;-80
2023/04/08 05:08:58;;;;;;;82.60;26.50;;;2.50;99.90;;;;;;5053532;28;20088;-79
2023/04/08 05:11:24;;;;;;;82.43;26.30;;;2.50;99.90;;;;;;5053678;28;20109;-80
2023/04/08 05:13:49;;;;;;;78.63;25.15;;;2.50;99.90;;;;;;5050570;28;20045;-80
2023/04/08 05:16:15;;;;;;;83.13;25.60;;;2.50;99.90;;;;;;5050873;28;20107;-81
2023/04/08 05:18:41;;;;;;;73.28;23.25;;;2.50;99.90;;;;;;5051868;28;20040;-80
2023/04/08 05:21:07;;;;;;;80.28;24.40;;;2.60;99.90;;;;;;5051353;28;20049;-81
2023/04/08 05:23:34;;;;;;;70.72;22.15;;;2.60;99.90;;;;;;5035741;28;20425;-80
2023/04/08 05:26:00;;;;;;;73.13;24.17;;;2.60;99.90;;;;;;5051590;28;20068;-78
2023/04/08 05:28:26;;;;;;;79.93;24.70;;;2.70;99.90;;;;;;5052085;28;20084;-81
2023/04/08 05:30:52;;;;;;;81.88;24.75;;;2.80;99.90;;;;;;5051857;28;20534;-77
2023/04/08 05:33:18;;;;;;;82.35;24.55;;;2.90;99.90;;;;;;5052042;28;20045;-79
2023/04/08 05:35:44;;;;;;;77.65;24.20;;;3.00;99.90;;;;;;5053083;28;20500;-79
2023/04/08 05:38:10;;;;;;;81.38;25.73;;;3.00;99.90;;;;;;5072288;28;20048;-77
2023/04/08 05:40:36;;;;;;;79.53;24.75;;;3.20;99.90;;;;;;5072497;28;20044;-80
2023/04/08 05:43:02;;;;;;;79.95;24.58;;;3.20;99.90;;;;;;5053654;28;20058;-82
2023/04/08 05:45:28;;;;;;;79.15;25.52;;;3.30;99.90;;;;;;5071975;28;20465;-82
2023/04/08 05:47:54;;;;;;;81.72;26.50;;;3.40;99.90;;;;;;5070924;28;20048;-81
2023/04/08 05:50:20;;;;;;;79.45;25.38;;;3.40;99.90;;;;;;5072028;28;20055;-81
2023/04/08 05:52:46;;;;;;;91.78;25.48;;;3.50;99.90;;;;;;5069245;28;20102;-79
2023/04/08 05:55:12;;;;;;;79.30;24.90;;;3.60;99.90;;;;;;5072695;28;20052;-78
2023/04/08 05:57:39;;;;;;;81.20;26.77;;;3.60;99.90;;;;;;5074231;28;20049;-79
2023/04/08 06:00:07;;;;;;;84.65;25.25;;;3.60;99.90;;;;;;5074916;28;20087;-79
2023/04/08 06:02:33;;;;;;;82.85;24.67;;;3.70;99.90;;;;;;5074396;28;20087;-79
2023/04/08 06:04:59;;;;;;;83.53;24.20;;;3.80;99.90;;;;;;5073864;28;20131;-76
2023/04/08 06:07:25;;;;;;;76.45;23.50;;;3.80;99.90;;;;;;5040788;28;20496;-79
2023/04/08 06:09:51;;;;;;;81.15;22.83;;;3.80;99.90;;;;;;5054622;28;20052;-79
2023/04/08 06:12:17;;;;;;;85.45;24.05;;;3.90;99.90;;;;;;5055047;28;20525;-77
2023/04/08 06:14:42;;;;;;;83.80;24.77;;;3.90;99.90;;;;;;5054689;28;20132;-77
2023/04/08 06:17:08;;;;;;;97.13;28.65;;;4.00;99.90;;;;;;5054863;28;20053;-79
2023/04/08 06:19:34;;;;;;;86.05;24.58;;;4.00;99.90;;;;;;5055344;28;20056;-80
2023/04/08 06:22:00;;;;;;;84.18;24.73;;;4.10;99.90;;;;;;5053939;28;20085;-78
2023/04/08 06:24:26;;;;;;;87.70;25.92;;;4.20;99.90;;;;;;5055151;28;20174;-81
2023/04/08 06:26:53;;;;;;;80.07;24.10;;;4.30;99.90;;;;;;5055153;28;20128;-78
2023/04/08 06:29:22;;;;;;;89.72;28.08;;;4.30;99.90;;;;;;5055219;28;20500;-80
2023/04/08 06:31:49;;;;;;;91.40;25.33;;;4.30;99.90;;;;;;5057617;28;20084;-81
2023/04/08 06:34:15;;;;;;;98.38;27.50;;;4.50;99.90;;;;;;5060390;28;20066;-81
2023/04/08 06:36:41;;;;;;;99.82;26.30;;;4.60;99.90;;;;;;5060633;28;20088;-80
2023/04/08 06:39:07;;;;;;;87.65;25.88;;;4.60;99.90;;;;;;5061744;28;20052;-78
2023/04/08 06:41:33;;;;;;;88.18;24.67;;;4.70;99.90;;;;;;5062199;28;20464;-79
2023/04/08 06:43:58;;;;;;;89.68;26.13;;;4.90;99.90;;;;;;5062264;28;20496;-80
2023/04/08 06:46:24;;;;;;;87.90;25.15;;;5.00;99.90;;;;;;5043789;28;20059;-78
2023/04/08 06:48:50;;;;;;;88.40;25.05;;;5.10;99.90;;;;;;5041979;28;20476;-79
2023/04/08 06:51:15;;;;;;;77.68;23.58;;;5.20;99.90;;;;;;5054394;28;20401;-82
2023/04/08 06:53:41;;;;;;;80.63;23.48;;;5.30;99.90;;;;;;5053511;28;20033;-79
2023/04/08 06:56:07;;;;;;;89.38;25.23;;;5.40;99.90;;;;;;5053932;28;20139;-78
2023/04/08 06:58:33;;;;;;;83.68;24.83;;;5.50;99.90;;;;;;5053990;28;20107;-79
2023/04/08 07:01:00;;;;;;;87.65;23.60;;;5.60;99.90;;;;;;5056422;28;20101;-81
2023/04/08 07:03:26;;;;;;;90.25;27.23;;;5.70;99.90;;;;;;5072922;28;20467;-78
2023/04/08 07:05:52;;;;;;;75.40;21.60;;;5.90;99.90;;;;;;5072634;28;20128;-78
2023/04/08 07:08:18;;;;;;;88.68;25.05;;;6.10;99.90;;;;;;5073887;28;20408;-79
2023/04/08 07:10:43;;;;;;;86.47;24.38;;;6.30;99.90;;;;;;5072799;28;20049;-80
2023/04/08 07:13:09;;;;;;;80.32;24.08;;;6.30;99.90;;;;;;5073001;28;20051;-80
2023/04/08 07:15:36;;;;;;;84.68;25.45;;;6.50;99.90;;;;;;5073749;28;20044;-81
2023/04/08 07:18:03;;;;;;;89.13;25.10;;;6.60;99.90;;;;;;5070488;28;20404;-78
2023/04/08 07:20:30;;;;;;;97.85;29.13;;;6.80;99.90;;;;;;5054984;28;20084;-77
2023/04/08 07:22:55;;;;;;;87.97;24.45;;;6.70;99.90;;;;;;5054718;28;20056;-81
2023/04/08 07:25:21;;;;;;;78.25;23.13;;;6.90;99.90;;;;;;5036783;28;20110;-80
2023/04/08 07:27:47;;;;;;;87.57;28.50;;;7.00;99.90;;;;;;5052865;28;20041;-81
2023/04/08 07:30:13;;;;;;;84.00;23.13;;;7.10;99.90;;;;;;5053901;28;20131;-82
2023/04/08 07:32:39;;;;;;;85.55;23.90;;;7.20;99.90;;;;;;5058468;28;20040;-76
2023/04/08 07:35:05;;;;;;;89.20;26.30;;;7.50;99.90;;;;;;5067652;28;20413;-75
2023/04/08 07:37:31;;;;;;;80.68;24.63;;;7.60;99.90;;;;;;5052440;28;20448;-75
2023/04/08 07:39:57;;;;;;;87.28;24.20;;;7.70;99.90;;;;;;5035348;28;20070;-77
2023/04/08 07:42:22;;;;;;;77.63;23.20;;;7.80;99.90;;;;;;5035124;28;20397;-78
2023/04/08 07:44:48;;;;;;;83.47;25.52;;;7.70;99.90;;;;;;5052819;28;20040;-72
2023/04/08 07:47:14;;;;;;;86.00;24.42;;;7.70;99.90;;;;;;5053583;28;20180;-73
2023/04/08 07:49:39;;;;;;;81.10;24.40;;;7.70;99.90;;;;;;5052520;28;20079;-72
2023/04/08 07:52:05;;;;;;;69.68;22.13;;;7.70;99.90;;;;;;5052619;28;20410;-72
2023/04/08 07:54:34;;;;;;;63.28;20.17;;;7.60;99.90;;;;;;5052092;28;20139;-79
2023/04/08 07:57:01;;;;;;;72.10;22.58;;;7.60;99.90;;;;;;5052440;28;20111;-73
2023/04/08 07:59:28;;;;;;;67.05;21.23;;;7.60;99.90;;;;;;5053881;28;20048;-83
2023/04/08 08:01:54;;;;;;;68.13;22.95;;;7.50;99.90;;;;;;5058383;28;20063;-81
2023/04/08 08:04:20;;;;;;;67.13;22.45;;;7.40;99.90;;;;;;5074488;28;20116;-78
2023/04/08 08:06:46;;;;;;;69.13;20.53;;;7.30;99.90;;;;;;5056241;28;20048;-76
2023/04/08 08:09:12;;;;;;;66.45;21.48;;;7.40;99.90;;;;;;5068035;28;20523;-77
2023/04/08 08:11:38;;;;;;;74.30;22.33;;;7.40;99.90;;;;;;5053887;28;20048;-75
2023/04/08 08:14:07;;;;;;;61.80;20.73;;;7.50;99.90;;;;;;5053122;28;20122;-78
2023/04/08 08:16:33;;;;;;;56.90;18.92;;;7.50;99.90;;;;;;5051936;28;20099;-74
2023/04/08 08:18:58;;;;;;;61.88;20.55;;;7.50;99.90;;;;;;5052106;28;20489;-72
2023/04/08 08:21:25;;;;;;;65.03;23.92;;;7.50;99.90;;;;;;5052372;28;20049;-74
2023/04/08 08:23:52;;;;;;;59.85;21.58;;;7.30;99.90;;;;;;5052645;28;20481;-74
2023/04/08 08:26:18;;;;;;;66.32;23.27;;;7.40;99.90;;;;;;5051732;28;20443;-68
2023/04/08 08:28:43;;;;;;;67.18;22.52;;;7.40;99.90;;;;;;5052323;28;20049;-69
2023/04/08 08:31:09;;;;;;;61.80;20.10;;;7.50;99.90;;;;;;5051829;28;20045;-69
2023/04/08 08:33:35;;;;;;;56.47;18.20;;;7.50;99.90;;;;;;5052249;28;20045;-68
2023/04/08 08:36:03;;;;;;;59.85;19.95;;;7.60;99.90;;;;;;5051524;28;20049;-81
2023/04/08 08:38:29;;;;;;;57.33;19.65;;;7.80;99.90;;;;;;5052190;28;20511;-80
2023/04/08 08:40:56;;;;;;;54.88;18.42;;;7.90;99.90;;;;;;5052404;28;20037;-80
2023/04/08 08:43:23;;;;;;;55.28;18.73;;;7.90;99.90;;;;;;5058510;28;20407;-80
2023/04/08 08:45:50;;;;;;;60.45;23.65;;;8.20;99.90;;;;;;5072180;28;20561;-78
2023/04/08 08:48:16;;;;;;;52.97;17.73;;;8.10;99.90;;;;;;5072044;28;20048;-80
2023/04/08 08:50:42;;;;;;;49.35;17.08;;;8.20;99.90;;;;;;5072548;28;20127;-78
2023/04/08 08:53:08;;;;;;;54.80;22.80;;;8.20;99.90;;;;;;5072002;28;20114;-82
2023/04/08 08:55:34;;;;;;;46.65;17.13;;;8.10;99.90;;;;;;5070980;28;20132;-74
2023/04/08 08:58:00;;;;;;;45.88;16.27;;;8.20;99.90;;;;;;5070736;28;20052;-80
2023/04/08 09:00:41;;;;;;;45.15;16.58;;;8.40;99.90;;;;;;5064803;28;20060;-81
2023/04/08 09:03:24;;;;;;;45.42;19.75;;;8.50;99.90;;;;;;5051288;28;20045;-71
2023/04/08 09:05:51;;;;;;;43.20;17.20;;;8.40;99.90;;;;;;5053038;28;20460;-76
2023/04/08 09:08:34;;;;;;;48.38;17.25;;;8.30;99.90;;;;;;5051231;28;20091;-76
2023/04/08 09:11:14;;;;;;;43.58;16.67;;;8.40;99.90;;;;;;5051664;28;20083;-71
2023/04/08 09:13:40;;;;;;;44.85;17.10;;;8.50;99.90;;;;;;5052683;28;20512;-77
2023/04/08 09:16:11;;;;;;;39.57;15.43;;;8.60;99.90;;;;;;5051017;28;20056;-74
2023/04/08 09:18:38;;;;;;;46.88;21.20;;;8.80;99.90;;;;;;5052400;28;20087;-67
2023/04/08 09:21:05;;;;;;;44.50;16.80;;;8.80;99.90;;;;;;5035347;28;20103;-77
2023/04/08 09:23:44;;;;;;;41.83;15.10;;;8.70;99.90;;;;;;5035361;28;20467;-76
2023/04/08 09:26:12;;;;;;;38.70;14.38;;;8.90;99.90;;;;;;5053251;28;20310;-76
2023/04/08 09:28:39;;;;;;;38.63;15.23;;;9.00;99.90;;;;;;5053295;28;20128;-73
2023/04/08 09:31:21;;;;;;;40.20;15.48;;;9.20;99.90;;;;;;5056749;28;20132;-75
2023/04/08 09:33:56;;;;;;;40.67;15.52;;;9.20;99.90;;;;;;5070886;28;20051;-78
2023/04/08 09:36:22;;;;;;;41.20;16.27;;;9.10;99.90;;;;;;5075597;28;20068;-76
2023/04/08 09:38:47;;;;;;;46.15;18.25;;;9.30;99.90;;;;;;5075643;28;20067;-77
2023/04/08 09:41:15;;;;;;;37.47;16.00;;;9.30;99.90;;;;;;5074726;28;20388;-79
2023/04/08 09:43:48;;;;;;;38.92;15.32;;;9.30;99.90;;;;;;5074589;28;20043;-78
2023/04/08 09:46:17;;;;;;;39.30;15.45;;;9.40;99.90;;;;;;5075622;28;20048;-76
2023/04/08 09:48:50;;;;;;;72.18;19.08;;;9.50;99.90;;;;;;5075781;28;20400;-77
2023/04/08 09:51:18;;;;;;;38.30;15.80;;;9.60;99.90;;;;;;5056491;28;20100;-78
2023/04/08 09:53:52;;;;;;;37.25;16.02;;;9.70;99.90;;;;;;5075766;28;20131;-78
2023/04/08 09:56:18;;;;;;;39.50;15.85;;;9.70;99.90;;;;;;5073704;28;20409;-77
2023/04/08 09:59:06;;;;;;;34.15;14.15;;;9.80;99.90;;;;;;5075531;28;20053;-76
2023/04/08 10:01:40;;;;;;;35.55;13.70;;;10.00;99.90;;;;;;5073873;28;20079;-72
2023/04/08 10:04:11;;;;;;;39.50;13.35;;;10.00;99.90;;;;;;5074372;28;20405;-74
2023/04/08 10:06:38;;;;;;;44.17;16.08;;;10.00;99.90;;;;;;5073575;28;20447;-72
2023/04/08 10:09:06;;;;;;;41.47;17.23;;;10.10;99.90;;;;;;5073945;28;20056;-74
2023/04/08 10:11:32;;;;;;;36.20;14.77;;;9.80;99.90;;;;;;5074611;28;20519;-74
2023/04/08 10:13:58;;;;;;;41.05;15.50;;;9.90;99.90;;;;;;5073807;28;20048;-76
2023/04/08 10:16:26;;;;;;;43.13;18.17;;;10.00;99.90;;;;;;5074586;28;20045;-74
2023/04/08 10:18:56;;;;;;;35.53;14.57;;;10.10;99.90;;;;;;5056964;28;20044;-76
2023/04/08 10:21:47;;;;;;;37.63;15.65;;;10.30;99.90;;;;;;5074149;28;20133;-70
2023/04/08 10:24:13;;;;;;;36.03;14.07;;;10.40;99.90;;;;;;5073667;28;20040;-73
2023/04/08 10:26:44;;;;;;;64.47;18.23;;;10.40;99.90;;;;;;5106162;28;20097;-75
2023/04/08 10:29:28;;;;;;;36.72;14.80;;;10.20;99.90;;;;;;5073460;28;20045;-70
2023/04/08 10:31:54;;;;;;;39.78;15.38;;;10.50;99.90;;;;;;5074454;28;20087;-70
2023/04/08 10:34:23;;;;;;;36.10;15.83;;;10.50;99.90;;;;;;5074839;28;20504;-77
2023/04/08 10:36:49;;;;;;;40.00;16.70;;;10.60;99.90;;;;;;5057402;28;20083;-78
2023/04/08 10:39:15;;;;;;;39.92;16.30;;;10.60;99.90;;;;;;5074640;28;20044;-78
2023/04/08 10:41:50;;;;;;;39.40;15.13;;;10.90;99.90;;;;;;5073111;28;20509;-82
2023/04/08 10:44:20;;;;;;;35.70;15.57;;;11.20;99.90;;;;;;5074378;28;20129;-80
2023/04/08 10:46:47;;;;;;;37.42;16.02;;;11.30;99.90;;;;;;5073034;28;20110;-80
2023/04/08 10:49:14;;;;;;;41.00;16.73;;;11.40;99.90;;;;;;5074754;28;20044;-79
2023/04/08 10:51:41;;;;;;;34.10;15.75;;;11.40;99.90;;;;;;5107499;28;20056;-78
2023/04/08 10:54:11;;;;;;;36.22;15.52;;;11.30;99.90;;;;;;5056780;28;20527;-81
2023/04/08 10:56:47;;;;;;;36.30;15.82;;;11.50;99.90;;;;;;5056374;28;20059;-79
2023/04/08 10:59:16;;;;;;;39.45;16.52;;;11.60;99.90;;;;;;5056137;28;20048;-76
2023/04/08 11:01:44;;;;;;;39.20;17.13;;;11.60;99.90;;;;;;5056769;28;20131;-79
2023/04/08 11:04:14;;;;;;;38.22;15.85;;;11.70;99.90;;;;;;5073821;28;20048;-77
2023/04/08 11:06:44;;;;;;;37.80;15.82;;;11.80;99.90;;;;;;5074481;28;20390;-81
2023/04/08 11:09:10;;;;;;;40.22;16.17;;;11.80;99.90;;;;;;5072698;28;20058;-81
2023/04/08 11:11:36;;;;;;;39.13;16.48;;;11.60;99.90;;;;;;5072947;28;20122;-85
2023/04/08 11:14:04;;;;;;;39.55;18.70;;;11.60;99.90;;;;;;5072781;28;20049;-77
2023/04/08 11:16:31;;;;;;;35.25;15.73;;;11.30;99.90;;;;;;5065991;28;20053;-71
2023/04/08 11:18:57;;;;;;;33.35;14.20;;;11.20;99.90;;;;;;5054167;28;20056;-75
2023/04/08 11:21:24;;;;;;;35.50;16.13;;;11.20;99.90;;;;;;5052678;28;20084;-79
2023/04/08 11:23:51;;;;;;;;;;;11.10;99.90;;;;;;5053481;28;20053;-78
2023/04/08 11:26:17;;;;;;;;;;;11.20;99.90;;;;;;5054086;28;19921;-76
2023/04/08 11:28:44;;;;;;;39.22;16.92;;;11.00;99.90;;;;;;5053493;28;19927;-78
2023/04/08 11:31:12;;;;;;;32.70;15.23;;;10.80;99.90;;;;;;5053079;28;20057;-78
2023/04/08 11:33:43;;;;;;;35.15;14.68;;;10.80;99.90;;;;;;5066270;28;20048;-77
2023/04/08 11:36:11;;;;;;;35.33;15.40;;;10.70;99.90;;;;;;5074913;28;20044;-75
2023/04/08 11:38:41;;;;;;;33.35;14.27;;;10.60;99.90;;;;;;5073875;28;20049;-74
2023/04/08 11:41:06;;;;;;;33.90;14.82;;;10.70;99.90;;;;;;5073105;28;20110;-75
2023/04/08 11:43:32;;;;;;;32.53;14.10;;;10.70;99.90;;;;;;5072930;28;20079;-76
2023/04/08 11:45:58;;;;;;;32.80;13.52;;;10.80;99.90;;;;;;5076421;28;20096;-75
2023/04/08 11:48:24;;;;;;;32.83;14.70;;;10.80;99.90;;;;;;5078948;28;20134;-75
2023/04/08 11:51:03;;;;;;;33.63;15.68;;;10.90;99.90;;;;;;5076992;28;20045;-76
2023/04/08 11:53:28;;;;;;;32.42;13.18;;;10.80;99.90;;;;;;5075527;28;20071;-77
2023/04/08 11:55:54;;;;;;;29.13;12.77;;;11.10;99.90;;;;;;5074664;28;20060;-77
2023/04/08 11:58:21;;;;;;;34.50;12.93;;;11.40;99.90;;;;;;5074989;28;20133;-75
2023/04/08 12:00:48;;;;;;;27.08;12.88;;;11.60;99.90;;;;;;5072561;28;20041;-75
2023/04/08 12:03:14;;;;;;;28.77;13.48;;;11.80;99.90;;;;;;5072801;28;20070;-76
2023/04/08 12:05:40;;;;;;;32.85;14.00;;;11.70;99.90;;;;;;5071496;28;20113;-77
2023/04/08 12:08:05;;;;;;;31.17;12.65;;;11.90;99.90;;;;;;5059770;28;20485;-76
2023/04/08 12:10:32;;;;;;;27.55;12.95;;;12.00;99.90;;;;;;5053427;28;20401;-80
2023/04/08 12:12:57;;;;;;;29.77;13.38;;;12.10;99.90;;;;;;5052893;28;20080;-81
2023/04/08 12:15:23;;;;;;;30.20;13.77;;;11.90;99.90;;;;;;5036501;28;20077;-80
2023/04/08 12:17:49;;;;;;;33.92;14.70;;;12.10;99.90;;;;;;5055173;28;20056;-85
2023/04/08 12:20:16;;;;;;;33.67;13.77;;;11.70;99.90;;;;;;5053701;28;20382;-81
2023/04/08 12:22:41;;;;;;;30.60;13.77;;;11.90;99.90;;;;;;5053562;28;20504;-79
2023/04/08 12:25:08;;;;;;;32.33;13.63;;;11.50;99.90;;;;;;5053851;28;20066;-83
2023/04/08 12:27:33;;;;;;;29.85;13.63;;;11.70;99.90;;;;;;5051761;28;20041;-81
2023/04/08 12:30:00;;;;;;;31.02;13.90;;;12.10;99.90;;;;;;5051602;28;20389;-79
2023/04/08 12:32:26;;;;;;;28.98;13.32;;;12.20;99.90;;;;;;5055926;28;20110;-82
2023/04/08 12:34:51;;;;;;;31.77;13.65;;;12.30;99.90;;;;;;5071485;28;20488;-83
2023/04/08 12:37:17;;;;;;;32.03;13.85;;;12.40;99.90;;;;;;5073993;28;20510;-81
2023/04/08 12:39:43;;;;;;;30.80;13.80;;;12.50;99.90;;;;;;5073597;28;20090;-81